createdAt,value
2022-12-19T00:01:54.033Z,-2.60
2022-12-19T00:04:21.287Z,-2.60
2022-12-19T00:06:48.229Z,-1.70
2022-12-19T00:09:15.300Z,-2.60
2022-12-19T00:11:42.782Z,-2.60
2022-12-19T00:14:12.846Z,-2.60
2022-12-19T00:16:39.838Z,-2.50
2022-12-19T00:19:07.450Z,-2.50
2022-12-19T00:21:35.673Z,-2.60
2022-12-19T00:24:10.479Z,-2.60
2022-12-19T00:26:49.222Z,-2.50
2022-12-19T00:29:16.368Z,-2.50
2022-12-19T00:31:43.541Z,-1.90
2022-12-19T00:34:10.793Z,-2.60
2022-12-19T00:36:37.950Z,-2.60
2022-12-19T00:39:08.100Z,-2.60
2022-12-19T00:41:41.780Z,-2.60
2022-12-19T00:44:14.483Z,-2.60
2022-12-19T00:46:42.654Z,-2.00
2022-12-19T00:49:13.317Z,-2.60
2022-12-19T00:51:40.315Z,-2.60
2022-12-19T00:54:07.992Z,-2.50
2022-12-19T00:56:37.326Z,-2.60
2022-12-19T00:59:06.201Z,-2.60
2022-12-19T01:01:41.485Z,-2.60
2022-12-19T01:04:28.139Z,-2.60
2022-12-19T01:06:57.923Z,-2.60
2022-12-19T01:09:30.792Z,-2.50
2022-12-19T01:12:16.683Z,-1.90
2022-12-19T01:14:43.695Z,-2.60
2022-12-19T01:17:10.683Z,-2.60
2022-12-19T01:19:43.401Z,-2.60
2022-12-19T01:22:13.439Z,-2.60
2022-12-19T01:24:41.377Z,-2.50
2022-12-19T01:27:08.821Z,-2.40
2022-12-19T01:29:37.617Z,-2.50
2022-12-19T01:32:20.262Z,-2.60
2022-12-19T01:34:47.237Z,-2.50
2022-12-19T01:37:17.408Z,-2.50
2022-12-19T01:39:46.036Z,-2.60
2022-12-19T01:42:19.619Z,-2.50
2022-12-19T01:45:07.554Z,-2.50
2022-12-19T01:47:56.670Z,-2.50
2022-12-19T01:50:35.587Z,-2.50
2022-12-19T01:53:04.952Z,-2.50
2022-12-19T01:55:31.962Z,-2.50
2022-12-19T01:58:00.295Z,-2.50
2022-12-19T02:00:27.323Z,-2.50
2022-12-19T02:03:06.676Z,-2.50
2022-12-19T02:05:36.140Z,-2.50
2022-12-19T02:08:04.213Z,-2.40
2022-12-19T02:10:31.262Z,-2.50
2022-12-19T02:12:58.730Z,-2.50
2022-12-19T02:15:33.671Z,-2.40
2022-12-19T02:18:36.181Z,-2.40
2022-12-19T02:21:15.144Z,-2.40
2022-12-19T02:23:59.828Z,-2.40
2022-12-19T02:26:29.820Z,-2.40
2022-12-19T02:29:11.802Z,-2.40
2022-12-19T02:31:58.988Z,-2.40
2022-12-19T02:34:44.285Z,-2.30
2022-12-19T02:37:21.596Z,-2.30
2022-12-19T02:40:04.569Z,-2.30
2022-12-19T02:42:39.350Z,-2.30
2022-12-19T02:45:10.654Z,-2.30
2022-12-19T02:47:38.731Z,-2.30
2022-12-19T02:50:07.712Z,-2.30
2022-12-19T02:52:34.645Z,-2.30
2022-12-19T02:55:07.945Z,-2.30
2022-12-19T02:58:17.173Z,-2.30
2022-12-19T03:01:24.478Z,-2.20
2022-12-19T03:03:56.605Z,-2.20
2022-12-19T03:06:41.138Z,-2.20
2022-12-19T03:09:24.943Z,-2.20
2022-12-19T03:12:01.873Z,-2.20
2022-12-19T03:14:31.349Z,-2.20
2022-12-19T03:17:05.480Z,-2.20
2022-12-19T03:19:35.192Z,-2.20
2022-12-19T03:22:02.431Z,-2.20
2022-12-19T03:24:29.732Z,-2.20
2022-12-19T03:27:09.231Z,-2.20
2022-12-19T03:29:40.410Z,-2.20
2022-12-19T03:32:15.125Z,-2.20
2022-12-19T03:35:13.180Z,-2.10
2022-12-19T03:37:43.239Z,-2.10
2022-12-19T03:40:21.743Z,-1.50
2022-12-19T03:43:12.105Z,-2.10
2022-12-19T03:46:23.040Z,-2.10
2022-12-19T03:48:55.277Z,-2.10
2022-12-19T03:51:40.537Z,-2.10
2022-12-19T03:54:21.914Z,-2.10
2022-12-19T03:57:12.109Z,-2.10
2022-12-19T04:00:05.566Z,-2.10
2022-12-19T04:02:38.116Z,-1.40
2022-12-19T04:05:12.289Z,-2.10
2022-12-19T04:07:40.239Z,-2.00
2022-12-19T04:10:13.023Z,-2.10
2022-12-19T04:12:54.030Z,-2.00
2022-12-19T04:15:42.137Z,-2.00
2022-12-19T04:18:14.201Z,-2.00
2022-12-19T04:20:45.965Z,-2.00
2022-12-19T04:23:23.066Z,-2.00
2022-12-19T04:25:55.899Z,-1.60
2022-12-19T04:28:27.172Z,-2.00
2022-12-19T04:30:55.150Z,-2.00
2022-12-19T04:33:22.135Z,-2.00
2022-12-19T04:35:49.342Z,-1.80
2022-12-19T04:38:16.379Z,-1.20
2022-12-19T04:40:43.416Z,-2.00
2022-12-19T04:43:10.553Z,-2.00
2022-12-19T04:45:37.881Z,-1.00
2022-12-19T04:48:05.357Z,-2.00
2022-12-19T04:50:35.494Z,-1.90
2022-12-19T04:53:03.050Z,-1.90
2022-12-19T04:55:30.119Z,-1.90
2022-12-19T04:57:57.170Z,-1.40
2022-12-19T05:00:24.471Z,-1.90
2022-12-19T05:02:51.651Z,-1.90
2022-12-19T05:05:19.094Z,-1.60
2022-12-19T05:07:47.129Z,-1.80
2022-12-19T05:10:14.487Z,-1.80
2022-12-19T05:12:41.476Z,-1.90
2022-12-19T05:15:09.514Z,-1.90
2022-12-19T05:17:36.572Z,-1.80
2022-12-19T05:20:04.597Z,-1.80
2022-12-19T05:22:31.706Z,-1.80
2022-12-19T05:24:58.819Z,-1.40
2022-12-19T05:27:25.805Z,-1.80
2022-12-19T05:29:52.840Z,-1.70
2022-12-19T05:32:19.827Z,-1.80
2022-12-19T05:34:46.819Z,-1.80
2022-12-19T05:37:13.860Z,-1.70
2022-12-19T05:39:40.846Z,-1.70
2022-12-19T05:42:12.134Z,-1.70
2022-12-19T05:44:39.701Z,-1.70
2022-12-19T05:47:06.846Z,-1.70
2022-12-19T05:49:33.812Z,-1.70
2022-12-19T05:52:00.811Z,-1.70
2022-12-19T05:54:28.409Z,-1.70
2022-12-19T05:56:55.631Z,-0.80
2022-12-19T05:59:22.680Z,-1.60
2022-12-19T06:01:49.796Z,-1.70
2022-12-19T06:04:16.828Z,-1.60
2022-12-19T06:06:44.052Z,-1.60
2022-12-19T06:09:11.007Z,-1.60
2022-12-19T06:11:38.077Z,-0.60
2022-12-19T06:14:07.998Z,-1.20
2022-12-19T06:16:35.009Z,-0.90
2022-12-19T06:19:02.058Z,-1.60
2022-12-19T06:21:29.038Z,-1.30
2022-12-19T06:23:56.114Z,-1.60
2022-12-19T06:26:23.580Z,-1.60
2022-12-19T06:28:52.801Z,-1.60
2022-12-19T06:31:22.845Z,-1.60
2022-12-19T06:33:50.617Z,-1.50
2022-12-19T06:36:22.514Z,-1.20
2022-12-19T06:38:51.019Z,-1.50
2022-12-19T06:41:37.941Z,-1.50
2022-12-19T06:44:09.108Z,-1.50
2022-12-19T06:46:37.533Z,-1.40
2022-12-19T06:49:05.138Z,-1.50
2022-12-19T06:51:32.543Z,-0.70
2022-12-19T06:53:59.580Z,-1.50
2022-12-19T06:56:26.956Z,-0.70
2022-12-19T06:58:54.379Z,-1.50
2022-12-19T07:02:05.047Z,-1.50
2022-12-19T07:04:41.683Z,-1.50
2022-12-19T07:07:08.706Z,-1.50
2022-12-19T07:09:35.865Z,-1.40
2022-12-19T07:12:03.523Z,-1.50
2022-12-19T07:14:30.702Z,-1.40
2022-12-19T07:17:01.453Z,-1.40
2022-12-19T07:19:30.750Z,-1.40
2022-12-19T07:21:59.423Z,-0.80
2022-12-19T07:24:26.470Z,-1.40
2022-12-19T07:26:53.658Z,-1.40
2022-12-19T07:29:20.644Z,-1.40
2022-12-19T07:31:47.782Z,-1.20
2022-12-19T07:34:14.883Z,-1.40
2022-12-19T07:36:41.884Z,-0.40
2022-12-19T07:39:09.026Z,-1.30
2022-12-19T07:41:40.130Z,-1.30
2022-12-19T07:44:07.851Z,-1.30
2022-12-19T07:46:35.344Z,-1.30
2022-12-19T07:49:02.377Z,-1.10
2022-12-19T07:51:29.797Z,-1.30
2022-12-19T07:53:56.937Z,-1.30
2022-12-19T07:56:25.506Z,-0.20
2022-12-19T07:58:53.159Z,-1.20
2022-12-19T08:01:20.555Z,-0.50
2022-12-19T08:03:47.738Z,-1.10
2022-12-19T08:06:14.743Z,-1.20
2022-12-19T08:08:41.912Z,-1.20
2022-12-19T08:11:18.924Z,-1.20
2022-12-19T08:13:47.184Z,-1.20
2022-12-19T08:16:15.416Z,-1.20
2022-12-19T08:18:42.633Z,-1.10
2022-12-19T08:21:10.948Z,-1.10
2022-12-19T08:23:41.358Z,-1.10
2022-12-19T08:26:13.425Z,-1.10
2022-12-19T08:28:40.990Z,-0.90
2022-12-19T08:31:12.169Z,-0.20
2022-12-19T08:33:41.079Z,-1.10
2022-12-19T08:36:11.956Z,-1.00
2022-12-19T08:38:42.504Z,-1.00
2022-12-19T08:41:09.983Z,-0.30
2022-12-19T08:43:38.252Z,-0.60
2022-12-19T08:46:06.542Z,-0.90
2022-12-19T08:48:34.982Z,-0.90
2022-12-19T08:51:07.932Z,-0.90
2022-12-19T08:53:39.210Z,-0.90
2022-12-19T08:56:26.541Z,-0.90
2022-12-19T08:58:56.089Z,-0.50
2022-12-19T09:01:24.194Z,-0.60
2022-12-19T09:04:06.581Z,-0.80
2022-12-19T09:06:38.922Z,-0.70
2022-12-19T09:09:06.202Z,-0.80
2022-12-19T09:11:33.736Z,-0.80
2022-12-19T09:14:05.307Z,-0.70
2022-12-19T09:16:32.403Z,-0.70
2022-12-19T09:18:59.540Z,-0.10
2022-12-19T09:21:29.499Z,-0.70
2022-12-19T09:24:07.032Z,-0.50
2022-12-19T09:26:35.720Z,-0.60
2022-12-19T09:29:05.095Z,-0.60
2022-12-19T09:31:55.749Z,0.00
2022-12-19T09:34:37.381Z,-0.10
2022-12-19T09:37:08.589Z,-0.50
2022-12-19T09:39:36.380Z,-0.50
2022-12-19T09:42:40.705Z,-0.40
2022-12-19T09:45:33.251Z,-0.40
2022-12-19T09:48:01.631Z,-0.30
2022-12-19T09:51:11.148Z,-0.30
2022-12-19T09:54:03.953Z,-0.30
2022-12-19T09:56:45.922Z,-0.30
2022-12-19T09:59:39.798Z,0.00
2022-12-19T10:02:44.140Z,-0.20
2022-12-19T10:07:16.032Z,-0.20
2022-12-19T10:08:53.791Z,-0.20
2022-12-19T10:12:44.231Z,-0.20
2022-12-19T10:15:10.641Z,-0.10
2022-12-19T10:18:12.147Z,-0.10
2022-12-19T10:20:46.434Z,-0.10
2022-12-19T10:23:54.802Z,0.00
2022-12-19T10:26:44.980Z,0.00
2022-12-19T10:29:46.674Z,0.00
2022-12-19T10:32:34.081Z,0.00
2022-12-19T10:35:01.574Z,0.10
2022-12-19T10:37:49.654Z,0.10
2022-12-19T10:40:35.158Z,0.10
2022-12-19T10:43:33.924Z,0.20
2022-12-19T10:46:14.361Z,0.10
2022-12-19T10:48:41.501Z,0.10
2022-12-19T10:51:23.986Z,0.20
2022-12-19T10:53:57.328Z,0.20
2022-12-19T10:56:37.131Z,0.40
2022-12-19T10:59:16.300Z,0.40
2022-12-19T11:01:44.550Z,0.70
2022-12-19T11:04:29.220Z,1.00
2022-12-19T11:07:21.288Z,0.30
2022-12-19T11:09:55.694Z,0.30
2022-12-19T11:16:02.834Z,0.70
2022-12-19T11:20:40.374Z,0.40
2022-12-19T11:28:43.352Z,1.10
2022-12-19T11:29:32.816Z,0.80
2022-12-19T11:29:38.395Z,1.40
2022-12-19T11:30:44.127Z,0.50
2022-12-19T11:32:46.383Z,0.50
2022-12-19T11:35:24.399Z,1.30
2022-12-19T11:38:06.252Z,0.60
2022-12-19T11:40:51.636Z,0.70
2022-12-19T11:43:49.798Z,0.70
2022-12-19T11:46:44.064Z,0.70
2022-12-19T11:49:55.280Z,0.70
2022-12-19T11:53:20.369Z,0.80
2022-12-19T11:55:51.372Z,0.80
2022-12-19T11:58:18.663Z,0.80
2022-12-19T12:01:35.033Z,0.80
2022-12-19T12:05:02.166Z,0.90
2022-12-19T12:07:37.411Z,0.90
2022-12-19T12:16:19.740Z,0.90
2022-12-19T12:19:39.169Z,1.50
2022-12-19T12:28:39.841Z,1.00
2022-12-19T12:31:13.018Z,1.10
2022-12-19T12:31:42.403Z,1.10
2022-12-19T12:31:45.130Z,1.40
2022-12-19T12:31:47.730Z,1.10
2022-12-19T12:35:43.568Z,1.10
2022-12-19T12:39:08.606Z,1.30
2022-12-19T12:42:07.146Z,1.10
2022-12-19T12:44:57.473Z,1.20
2022-12-19T12:47:29.559Z,1.20
2022-12-19T12:50:06.854Z,1.20
2022-12-19T12:52:48.200Z,1.20
2022-12-19T12:55:29.663Z,1.20
2022-12-19T12:57:57.595Z,1.90
2022-12-19T13:00:33.054Z,2.00
2022-12-19T13:03:22.652Z,1.30
2022-12-19T13:05:49.622Z,1.30
2022-12-19T13:09:09.113Z,1.60
2022-12-19T13:12:09.328Z,1.40
2022-12-19T13:14:37.218Z,1.30
2022-12-19T13:17:13.745Z,1.40
2022-12-19T13:19:56.047Z,1.40
2022-12-19T13:22:42.574Z,2.00
2022-12-19T13:25:38.613Z,2.10
2022-12-19T13:28:16.272Z,1.40
2022-12-19T13:31:19.273Z,1.40
2022-12-19T13:33:56.076Z,1.40
2022-12-19T13:39:49.081Z,1.40
2022-12-19T13:40:08.987Z,1.30
2022-12-19T13:43:09.977Z,1.40
2022-12-19T13:45:41.881Z,1.40
2022-12-19T13:48:23.042Z,1.40
2022-12-19T13:50:51.218Z,1.40
2022-12-19T13:53:27.889Z,1.40
2022-12-19T13:56:11.174Z,1.60
2022-12-19T13:59:00.105Z,1.40
2022-12-19T14:01:38.282Z,1.30
2022-12-19T14:04:13.730Z,1.50
2022-12-19T14:06:46.133Z,1.30
2022-12-19T14:11:31.692Z,1.30
2022-12-19T14:13:57.056Z,1.30
2022-12-19T14:15:52.136Z,1.30
2022-12-19T14:18:42.731Z,2.10
2022-12-19T14:22:10.740Z,1.80
2022-12-19T14:24:20.247Z,1.20
2022-12-19T14:28:20.124Z,1.20
2022-12-19T14:30:27.323Z,1.20
2022-12-19T14:33:45.559Z,1.50
2022-12-19T14:36:09.920Z,1.40
2022-12-19T14:39:20.656Z,1.70
2022-12-19T14:42:02.504Z,1.10
2022-12-19T14:53:53.003Z,1.50
2022-12-19T14:54:04.473Z,1.10
2022-12-19T14:54:25.926Z,1.00
2022-12-19T14:54:30.492Z,1.20
2022-12-19T14:59:03.216Z,1.00
2022-12-19T15:01:34.255Z,1.00
2022-12-19T15:04:49.572Z,1.10
2022-12-19T15:07:11.797Z,0.90
2022-12-19T15:11:05.458Z,0.90
2022-12-19T15:14:55.122Z,0.80
2022-12-19T15:16:36.505Z,0.80
2022-12-19T15:19:12.106Z,0.80
2022-12-19T15:21:39.125Z,0.70
2022-12-19T15:24:06.255Z,1.40
2022-12-19T15:26:36.715Z,0.60
2022-12-19T15:29:12.930Z,0.70
2022-12-19T15:31:44.395Z,1.40
2022-12-19T15:34:35.081Z,1.40
2022-12-19T15:37:04.128Z,0.60
2022-12-19T15:39:31.234Z,0.70
2022-12-19T15:42:00.577Z,1.60
2022-12-19T15:44:40.288Z,1.00
2022-12-19T15:47:17.529Z,0.50
2022-12-19T15:49:44.673Z,0.50
2022-12-19T15:52:21.136Z,0.80
2022-12-19T15:54:50.143Z,0.50
2022-12-19T15:57:37.843Z,0.50
2022-12-19T16:00:18.593Z,0.50
2022-12-19T16:03:22.788Z,0.40
2022-12-19T16:05:34.385Z,0.50
2022-12-19T16:08:01.496Z,1.30
2022-12-19T16:10:29.022Z,0.50
2022-12-19T16:12:58.142Z,0.50
2022-12-19T16:15:32.007Z,0.80
2022-12-19T16:18:01.270Z,1.00
2022-12-19T16:20:31.957Z,0.50
2022-12-19T16:23:00.345Z,0.50
2022-12-19T16:25:46.868Z,0.50
2022-12-19T16:28:25.499Z,0.50
2022-12-19T16:30:53.189Z,0.50
2022-12-19T16:33:24.313Z,0.50
2022-12-19T16:36:07.436Z,0.50
2022-12-19T16:38:35.837Z,0.50
2022-12-19T16:41:03.120Z,0.90
2022-12-19T16:43:40.453Z,1.10
2022-12-19T16:46:08.737Z,0.50
2022-12-19T16:48:36.084Z,1.40
2022-12-19T16:51:03.658Z,0.90
2022-12-19T16:53:31.234Z,0.60
2022-12-19T16:56:00.708Z,1.20
2022-12-19T16:58:28.931Z,1.20
2022-12-19T17:00:59.141Z,0.60
2022-12-19T17:03:35.239Z,1.20
2022-12-19T17:07:05.588Z,1.50
2022-12-19T17:09:32.541Z,0.50
2022-12-19T17:12:02.160Z,0.60
2022-12-19T17:14:32.230Z,0.50
2022-12-19T17:17:00.269Z,0.50
2022-12-19T17:19:38.838Z,0.50
2022-12-19T17:22:17.959Z,0.50
2022-12-19T17:24:49.561Z,0.50
2022-12-19T17:27:17.625Z,0.50
2022-12-19T17:29:45.645Z,0.50
2022-12-19T17:32:23.217Z,0.50
2022-12-19T17:34:52.395Z,0.50
2022-12-19T17:37:19.394Z,0.40
2022-12-19T17:39:46.394Z,0.70
2022-12-19T17:42:22.362Z,1.50
2022-12-19T17:44:49.777Z,0.50
2022-12-19T17:47:19.867Z,0.50
2022-12-19T17:49:48.589Z,1.30
2022-12-19T17:52:18.920Z,0.50
2022-12-19T17:54:46.237Z,1.80
2022-12-19T17:57:15.644Z,1.60
2022-12-19T18:02:23.465Z,0.50
2022-12-19T18:04:52.451Z,0.90
2022-12-19T18:07:20.359Z,0.50
2022-12-19T18:09:47.659Z,0.50
2022-12-19T18:12:18.152Z,0.40
2022-12-19T18:14:45.347Z,0.50
2022-12-19T18:17:20.889Z,0.40
2022-12-19T18:19:49.079Z,0.40
2022-12-19T18:22:18.386Z,1.60
2022-12-19T18:24:45.559Z,0.40
2022-12-19T18:27:13.118Z,1.60
2022-12-19T18:29:40.283Z,1.40
2022-12-19T18:32:15.778Z,0.50
2022-12-19T18:34:44.437Z,1.50
2022-12-19T18:37:17.452Z,0.50
2022-12-19T18:39:44.550Z,1.50
2022-12-19T18:42:20.834Z,1.70
2022-12-19T18:44:48.449Z,0.50
2022-12-19T18:47:23.647Z,0.90
2022-12-19T18:49:52.450Z,0.90
2022-12-19T18:52:19.452Z,0.70
2022-12-19T18:54:46.527Z,0.70
2022-12-19T18:57:14.683Z,0.70
2022-12-19T18:59:41.882Z,0.70
2022-12-19T19:02:26.389Z,0.70
2022-12-19T19:04:55.960Z,0.70
2022-12-19T19:07:23.313Z,0.70
2022-12-19T19:09:50.401Z,1.00
2022-12-19T19:12:17.431Z,0.70
2022-12-19T19:17:32.229Z,0.80
2022-12-19T19:19:59.763Z,0.90
2022-12-19T19:22:26.811Z,0.80
2022-12-19T19:24:53.855Z,1.70
2022-12-19T19:27:20.848Z,0.50
2022-12-19T19:30:01.809Z,0.80
2022-12-19T19:32:28.837Z,0.80
2022-12-19T19:34:56.091Z,1.20
2022-12-19T19:37:23.563Z,0.90
2022-12-19T19:39:50.651Z,0.90
2022-12-19T19:42:18.826Z,0.90
2022-12-19T19:44:46.462Z,0.90
2022-12-19T19:47:14.047Z,0.90
2022-12-19T19:49:41.243Z,0.90
2022-12-19T19:52:08.454Z,0.90
2022-12-19T19:54:35.816Z,0.90
2022-12-19T19:57:03.153Z,1.10
2022-12-19T19:59:31.591Z,0.90
2022-12-19T20:02:00.238Z,0.90
2022-12-19T20:04:27.520Z,1.10
2022-12-19T20:06:54.783Z,0.90
2022-12-19T20:09:21.888Z,0.90
2022-12-19T20:11:49.078Z,0.90
2022-12-19T20:14:16.218Z,1.10
2022-12-19T20:16:43.665Z,0.90
2022-12-19T20:19:10.840Z,0.90
2022-12-19T20:21:37.834Z,0.90
2022-12-19T20:24:05.103Z,0.90
2022-12-19T20:26:32.157Z,1.00
2022-12-19T20:28:59.267Z,1.00
2022-12-19T20:31:26.998Z,0.90
2022-12-19T20:33:55.718Z,1.00
2022-12-19T20:36:24.257Z,1.00
2022-12-19T20:38:55.778Z,1.00
2022-12-19T20:41:22.806Z,1.00
2022-12-19T20:43:49.914Z,1.00
2022-12-19T20:46:20.839Z,1.00
2022-12-19T20:48:49.289Z,1.10
2022-12-19T20:51:19.116Z,1.00
2022-12-19T20:53:46.745Z,1.10
2022-12-19T20:56:17.224Z,1.10
2022-12-19T20:58:45.241Z,1.00
2022-12-19T21:08:07.350Z,1.10
2022-12-19T21:10:36.645Z,1.10
2022-12-19T21:13:03.647Z,1.10
2022-12-19T21:15:31.825Z,1.20
2022-12-19T21:18:01.492Z,1.20
2022-12-19T21:20:34.225Z,1.20
2022-12-19T21:23:01.548Z,1.20
2022-12-19T21:25:28.542Z,1.20
2022-12-19T21:27:55.978Z,1.20
2022-12-19T21:30:23.141Z,1.30
2022-12-19T21:32:50.086Z,1.30
2022-12-19T21:35:38.735Z,1.30
2022-12-19T21:38:18.570Z,1.40
2022-12-19T21:40:47.704Z,1.40
2022-12-19T21:43:14.902Z,1.40
2022-12-19T21:45:41.867Z,1.40
2022-12-19T21:48:09.396Z,1.50
2022-12-19T21:50:36.461Z,1.30
2022-12-19T21:53:03.422Z,1.50
2022-12-19T21:55:30.436Z,1.40
2022-12-19T21:57:57.621Z,1.60
2022-12-19T22:00:26.100Z,1.50
2022-12-19T22:03:12.581Z,1.50
2022-12-19T22:05:40.171Z,1.60
2022-12-19T22:08:08.519Z,1.60
2022-12-19T22:10:38.521Z,1.50
2022-12-19T22:13:05.488Z,1.50
2022-12-19T22:15:32.417Z,1.50
2022-12-19T22:17:59.515Z,1.70
2022-12-19T22:20:26.442Z,1.50
2022-12-19T22:22:54.396Z,1.50
2022-12-19T22:25:21.364Z,1.50
2022-12-19T22:27:48.294Z,1.60
2022-12-19T22:30:15.808Z,1.60
2022-12-19T22:32:42.764Z,1.50
2022-12-19T22:35:09.791Z,1.60
2022-12-19T22:37:36.779Z,1.50
2022-12-19T22:40:04.663Z,1.40
2022-12-19T22:42:31.631Z,1.30
2022-12-19T22:44:59.377Z,1.40
2022-12-19T22:47:26.402Z,1.30
2022-12-19T22:49:53.459Z,1.30
2022-12-19T22:52:20.396Z,1.30
2022-12-19T22:54:47.381Z,1.30
2022-12-19T22:57:14.354Z,1.40
2022-12-19T22:59:42.999Z,1.30
2022-12-19T23:02:10.358Z,1.30
2022-12-19T23:04:37.464Z,1.30
2022-12-19T23:07:04.431Z,1.30
2022-12-19T23:09:31.360Z,1.30
2022-12-19T23:11:58.303Z,1.40
2022-12-19T23:14:25.259Z,1.40
2022-12-19T23:16:52.384Z,1.40
2022-12-19T23:19:19.385Z,1.30
2022-12-19T23:21:46.748Z,1.40
2022-12-19T23:24:14.192Z,1.80
2022-12-19T23:26:41.374Z,1.40
2022-12-19T23:29:13.114Z,1.50
2022-12-19T23:31:45.970Z,1.40
2022-12-19T23:34:14.512Z,1.40
2022-12-19T23:39:28.532Z,1.40
2022-12-19T23:41:58.694Z,1.50
2022-12-19T23:44:25.958Z,1.40
2022-12-19T23:47:03.800Z,1.40
2022-12-19T23:49:33.216Z,1.50
2022-12-19T23:52:00.340Z,1.50
2022-12-19T23:54:27.417Z,1.40
2022-12-19T23:56:54.448Z,1.50
2022-12-19T23:59:21.483Z,1.40
